Time;durP1;ratioP1;P1;durP2;ratioP2;P2;SDS_P1;SDS_P2;PMS_P1;PMS_P2;Temp;Humidity;BMP_temperature;BMP_pressure;BME280_temperature;BME280_humidity;BME280_pressure;Samples;Min_cycle;Max_cycle;Signal;HPM_P1;HPM_P2
2023/05/13 00:02:32;;;;;;;2.25;1.65;;;;;;;;;;5000218;28;20505;-59
2023/05/13 00:11:38;;;;;;;2.97;1.80;;;;;;;;;;4981550;28;20073;-59
2023/05/13 00:14:54;;;;;;;2.30;1.70;;;;;;;;;;4991598;28;20042;-58
2023/05/13 00:18:11;;;;;;;3.35;1.92;;;;;;;;;;4993465;28;20046;-59
2023/05/13 00:21:02;;;;;;;2.22;1.60;;;;;;;;;;4967280;28;20141;-58
2023/05/13 00:23:40;;;;;;;3.95;1.70;;;;;;;;;;4953202;28;20046;-59
2023/05/13 00:26:48;;;;;;;2.80;1.83;;;;;;;;;;4998148;28;20038;-58
2023/05/13 00:30:05;;;;;;;2.05;1.55;;;;;;;;;;4965228;28;20250;-59
2023/05/13 00:33:29;;;;;;;2.25;1.60;;;;;;;;;;4987970;28;20243;-59
2023/05/13 00:36:55;;;;;;;2.40;1.67;;;;;;;;;;4998759;28;20582;-59
2023/05/13 00:42:54;;;;;;;2.25;1.67;;;;;;;;;;4996810;28;20082;-59
2023/05/13 00:49:12;;;;;;;1.90;1.60;;;;;;;;;;4995055;28;20430;-59
2023/05/13 01:01:31;;;;;;;1.50;1.15;;;;;;;;;;4965362;28;20050;-59
2023/05/13 01:04:46;;;;;;;3.53;1.90;;;;;;;;;;4998270;28;20034;-59
2023/05/13 01:07:36;;;;;;;2.78;1.67;;;;;;;;;;4989237;28;20046;-59
2023/05/13 01:10:50;;;;;;;2.05;1.38;;;;;;;;;;4983482;28;20418;-59
2023/05/13 01:17:23;;;;;;;2.08;1.50;;;;;;;;;;4997526;28;20272;-58
2023/05/13 01:20:13;;;;;;;2.72;1.65;;;;;;;;;;4983387;28;20054;-59
2023/05/13 01:23:39;;;;;;;2.78;1.60;;;;;;;;;;4985115;28;20527;-59
2023/05/13 01:26:56;;;;;;;2.03;1.52;;;;;;;;;;4997966;28;20471;-59
2023/05/13 01:33:29;;;;;;;2.30;1.67;;;;;;;;;;4984413;28;20077;-60
2023/05/13 01:36:56;;;;;;;2.22;1.38;;;;;;;;;;4981697;28;20062;-59
2023/05/13 01:52:27;;;;;;;1.90;1.50;;;;;;;;;;4950950;28;20054;-59
2023/05/13 01:58:59;;;;;;;2.97;1.60;;;;;;;;;;4963373;28;20046;-58
2023/05/13 02:02:05;;;;;;;2.80;1.70;;;;;;;;;;4964334;28;20046;-59
2023/05/13 02:05:39;;;;;;;2.45;1.40;;;;;;;;;;4939247;28;20039;-59
2023/05/13 02:11:55;;;;;;;2.30;1.48;;;;;;;;;;4961258;28;20183;-59
2023/05/13 02:15:12;;;;;;;1.75;1.40;;;;;;;;;;4951921;28;20056;-59
2023/05/13 02:24:52;;;;;;;2.55;1.75;;;;;;;;;;4961332;28;20052;-59
2023/05/13 02:27:59;;;;;;;1.90;1.40;;;;;;;;;;4970257;28;20570;-59
2023/05/13 02:31:15;;;;;;;1.75;1.40;;;;;;;;;;4954180;28;20227;-59
2023/05/13 02:34:40;;;;;;;1.95;1.58;;;;;;;;;;4950230;28;20062;-59
2023/05/13 02:41:05;;;;;;;1.73;1.45;;;;;;;;;;4994485;28;20040;-59
2023/05/13 02:43:54;;;;;;;2.50;1.40;;;;;;;;;;5002866;28;20030;-58
2023/05/13 02:47:10;;;;;;;2.00;1.30;;;;;;;;;;4994772;28;20053;-59
2023/05/13 02:50:35;;;;;;;2.33;1.52;;;;;;;;;;5002546;28;20022;-58
2023/05/13 02:53:43;;;;;;;1.92;1.58;;;;;;;;;;5002356;28;20569;-59
2023/05/13 03:00:08;;;;;;;2.63;1.30;;;;;;;;;;4969814;28;20100;-58
2023/05/13 03:06:04;;;;;;;1.70;1.35;;;;;;;;;;5001044;28;20902;-58
2023/05/13 03:09:09;;;;;;;2.58;1.48;;;;;;;;;;4961266;28;20053;-58
2023/05/13 03:11:58;;;;;;;2.35;1.50;;;;;;;;;;4975414;28;20642;-56
2023/05/13 03:14:47;;;;;;;2.10;1.33;;;;;;;;;;4947349;28;20424;-59
2023/05/13 03:17:36;;;;;;;1.95;1.42;;;;;;;;;;4966601;28;20053;-57
2023/05/13 03:20:23;;;;;;;2.20;1.30;;;;;;;;;;4983305;28;20190;-57
2023/05/13 03:22:54;;;;;;;2.17;1.60;;;;;;;;;;4983414;28;20506;-58
2023/05/13 03:25:41;;;;;;;3.00;1.58;;;;;;;;;;4981365;28;20071;-57
2023/05/13 03:28:20;;;;;;;3.00;1.55;;;;;;;;;;4956087;28;20062;-57
2023/05/13 03:31:41;;;;;;;2.22;1.45;;;;;;;;;;4979355;28;20042;-57
2023/05/13 03:34:44;;;;;;;2.35;1.45;;;;;;;;;;4956502;28;20503;-59
2023/05/13 03:37:57;;;;;;;2.40;1.40;;;;;;;;;;4956662;28;20090;-59
2023/05/13 03:44:26;;;;;;;2.38;1.13;;;;;;;;;;4966989;28;20100;-59
2023/05/13 03:47:30;;;;;;;2.17;1.50;;;;;;;;;;4975473;28;20120;-59
2023/05/13 03:53:18;;;;;;;2.00;1.40;;;;;;;;;;4965540;28;20053;-59
2023/05/13 03:59:43;;;;;;;2.55;1.60;;;;;;;;;;4997016;28;20046;-59
2023/05/13 04:03:09;;;;;;;2.75;1.38;;;;;;;;;;4983251;28;20053;-59
2023/05/13 04:06:16;;;;;;;1.90;1.42;;;;;;;;;;4973082;28;20448;-59
2023/05/13 04:15:48;;;;;;;1.70;1.30;;;;;;;;;;4963828;28;20548;-59
2023/05/13 04:18:50;;;;;;;2.28;1.20;;;;;;;;;;4954234;28;20161;-59
2023/05/13 04:21:43;;;;;;;1.60;1.20;;;;;;;;;;4973735;28;20521;-60
2023/05/13 04:24:33;;;;;;;1.70;1.20;;;;;;;;;;4980754;28;20046;-59
2023/05/13 04:27:23;;;;;;;2.03;1.30;;;;;;;;;;4962248;28;20519;-60
2023/05/13 04:30:00;;;;;;;2.40;1.30;;;;;;;;;;4966135;28;20046;-59
2023/05/13 04:32:57;;;;;;;1.90;1.38;;;;;;;;;;4970106;28;20049;-59
2023/05/13 04:36:03;;;;;;;1.90;1.33;;;;;;;;;;4942480;28;20051;-59
2023/05/13 04:39:02;;;;;;;1.42;1.10;;;;;;;;;;4934104;28;20154;-59
2023/05/13 04:41:50;;;;;;;2.47;1.40;;;;;;;;;;4929430;28;20134;-58
2023/05/13 04:44:38;;;;;;;1.77;1.17;;;;;;;;;;4946715;28;20500;-59
2023/05/13 04:47:34;;;;;;;2.17;1.20;;;;;;;;;;4927632;28;20484;-58
2023/05/13 04:50:28;;;;;;;3.17;1.45;;;;;;;;;;4931176;28;20043;-59
2023/05/13 04:53:07;;;;;;;2.95;1.55;;;;;;;;;;4929145;28;21103;-58
2023/05/13 04:56:18;;;;;;;2.35;1.33;;;;;;;;;;4938179;28;20019;-57
2023/05/13 04:59:18;;;;;;;2.38;1.40;;;;;;;;;;4934318;28;20487;-59
2023/05/13 05:02:09;;;;;;;2.28;1.20;;;;;;;;;;4944029;28;20061;-58
2023/05/13 05:05:04;;;;;;;2.05;1.25;;;;;;;;;;4908226;28;20102;-58
2023/05/13 05:08:08;;;;;;;2.13;1.40;;;;;;;;;;4928144;28;20397;-58
2023/05/13 05:11:09;;;;;;;2.03;1.10;;;;;;;;;;4927579;28;20053;-58
2023/05/13 05:13:58;;;;;;;2.22;1.30;;;;;;;;;;4943542;28;20142;-59
2023/05/13 05:20:08;;;;;;;1.70;1.30;;;;;;;;;;4924093;28;20073;-60
2023/05/13 05:23:09;;;;;;;1.95;1.20;;;;;;;;;;4943790;28;20047;-58
2023/05/13 05:26:07;;;;;;;1.55;1.20;;;;;;;;;;4938075;28;20035;-58
2023/05/13 05:28:55;;;;;;;2.28;1.48;;;;;;;;;;4934560;28;20047;-59
2023/05/13 05:31:44;;;;;;;2.53;1.30;;;;;;;;;;4915088;28;20880;-58
2023/05/13 05:34:50;;;;;;;2.40;1.20;;;;;;;;;;4950421;28;20875;-59
2023/05/13 05:37:31;;;;;;;;;;;;;;;;;;4951132;28;20073;-58
2023/05/13 05:40:40;;;;;;;1.85;1.30;;;;;;;;;;4935533;28;19983;-59
2023/05/13 05:43:24;;;;;;;;;;;;;;;;;;4929544;28;20035;-59
2023/05/13 05:46:21;;;;;;;2.05;1.10;;;;;;;;;;4903834;28;19926;-58
2023/05/13 05:49:14;;;;;;;1.92;1.27;;;;;;;;;;4928589;28;20034;-58
2023/05/13 05:52:09;;;;;;;2.25;1.10;;;;;;;;;;4954508;28;20129;-59
2023/05/13 05:54:56;;;;;;;1.85;1.40;;;;;;;;;;4937613;28;20065;-58
2023/05/13 05:57:44;;;;;;;1.88;1.25;;;;;;;;;;4937609;28;20856;-58
2023/05/13 06:00:51;;;;;;;2.08;1.20;;;;;;;;;;4961296;28;20117;-57
2023/05/13 06:03:54;;;;;;;1.45;1.30;;;;;;;;;;4907676;28;20130;-59
2023/05/13 06:06:38;;;;;;;2.03;1.40;;;;;;;;;;4942648;28;20034;-58
2023/05/13 06:09:24;;;;;;;2.60;1.27;;;;;;;;;;4945067;28;20133;-58
2023/05/13 06:11:55;;;;;;;2.30;1.40;;;;;;;;;;4936987;28;20492;-58
2023/05/13 06:14:57;;;;;;;1.73;1.30;;;;;;;;;;4957174;28;20050;-59
2023/05/13 06:17:56;;;;;;;1.58;1.13;;;;;;;;;;4960945;28;20470;-60
2023/05/13 06:20:48;;;;;;;2.25;1.40;;;;;;;;;;4934068;28;20105;-60
2023/05/13 06:23:43;;;;;;;2.50;1.45;;;;;;;;;;4947536;28;20034;-58
2023/05/13 06:26:32;;;;;;;1.95;1.40;;;;;;;;;;4948265;28;20031;-58
2023/05/13 06:29:29;;;;;;;1.90;1.33;;;;;;;;;;4955204;28;20038;-58
2023/05/13 06:32:18;;;;;;;1.60;1.10;;;;;;;;;;4924349;28;20054;-58
2023/05/13 06:38:04;;;;;;;1.85;1.40;;;;;;;;;;4964218;28;20330;-59
2023/05/13 06:40:52;;;;;;;3.60;1.65;;;;;;;;;;4956607;28;20133;-61
2023/05/13 06:43:31;;;;;;;2.35;1.65;;;;;;;;;;4938290;28;20038;-61
2023/05/13 06:46:15;;;;;;;;;;;;;;;;;;4976060;28;20117;-59
2023/05/13 06:49:06;;;;;;;3.38;1.33;;;;;;;;;;4935923;28;19918;-60
2023/05/13 06:51:47;;;;;;;2.33;1.27;;;;;;;;;;4965135;28;20263;-61
2023/05/13 06:54:32;;;;;;;2.53;1.27;;;;;;;;;;4958583;28;20490;-59
2023/05/13 06:57:21;;;;;;;3.38;1.40;;;;;;;;;;4978013;28;20038;-61
2023/05/13 07:00:18;;;;;;;1.83;1.35;;;;;;;;;;4976935;28;20489;-59
2023/05/13 07:03:24;;;;;;;2.00;1.10;;;;;;;;;;4957510;28;20626;-59
2023/05/13 07:06:14;;;;;;;1.80;1.33;;;;;;;;;;4961003;28;20077;-59
2023/05/13 07:09:10;;;;;;;1.90;1.20;;;;;;;;;;4964694;28;20365;-61
2023/05/13 07:12:02;;;;;;;2.00;1.38;;;;;;;;;;4969695;28;20038;-61
2023/05/13 07:14:56;;;;;;;2.47;1.30;;;;;;;;;;4946441;28;20129;-60
2023/05/13 07:17:52;;;;;;;2.10;1.35;;;;;;;;;;4959346;28;20633;-60
2023/05/13 07:20:47;;;;;;;2.28;1.23;;;;;;;;;;4943017;28;20103;-60
2023/05/13 07:23:37;;;;;;;2.47;1.30;;;;;;;;;;4968562;28;20042;-59
2023/05/13 07:26:12;;;;;;;1.92;1.15;;;;;;;;;;4973437;28;20507;-59
2023/05/13 07:29:02;;;;;;;1.83;1.10;;;;;;;;;;4963289;28;20042;-60
2023/05/13 07:31:55;;;;;;;1.65;1.30;;;;;;;;;;4977555;28;20034;-60
2023/05/13 07:37:03;;;;;;;3.03;1.40;;;;;;;;;;5404315;23;20517;-71
2023/05/13 07:39:28;;;;;;;1.67;1.20;;;;;;;;;;4916982;28;20038;-72
2023/05/13 07:41:53;;;;;;;1.98;1.30;;;;;;;;;;4951978;28;20035;-73
2023/05/13 07:44:19;;;;;;;1.97;1.03;;;;;;;;;;4951181;28;20069;-73
2023/05/13 07:46:44;;;;;;;3.22;1.30;;;;;;;;;;4950915;28;20282;-75
2023/05/13 07:49:09;;;;;;;2.77;1.60;;;;;;;;;;4940987;28;20038;-74
2023/05/13 07:51:35;;;;;;;3.50;1.70;;;;;;;;;;4951806;28;20019;-80
2023/05/13 07:54:00;;;;;;;2.20;1.33;;;;;;;;;;5164626;23;20281;-78
2023/05/13 07:56:25;;;;;;;4.93;1.45;;;;;;;;;;4985425;28;20027;-78
2023/05/13 07:58:50;;;;;;;2.83;1.40;;;;;;;;;;4989680;28;20022;-77
2023/05/13 08:01:16;;;;;;;2.10;1.30;;;;;;;;;;4972488;28;20057;-77
2023/05/13 08:03:41;;;;;;;1.98;1.30;;;;;;;;;;4984171;28;20451;-79
2023/05/13 08:06:06;;;;;;;2.00;1.20;;;;;;;;;;4954425;28;20034;-78
2023/05/13 08:08:32;;;;;;;3.53;1.60;;;;;;;;;;4986747;28;20296;-77
2023/05/13 08:10:57;;;;;;;2.20;1.60;;;;;;;;;;4990099;28;20033;-79
2023/05/13 08:13:22;;;;;;;2.93;1.63;;;;;;;;;;4988281;28;20026;-78
2023/05/13 08:15:47;;;;;;;2.35;1.35;;;;;;;;;;4991647;28;21097;-79
2023/05/13 08:18:13;;;;;;;2.87;1.60;;;;;;;;;;4974249;28;20594;-77
2023/05/13 08:20:39;;;;;;;3.08;1.50;;;;;;;;;;4972161;28;20304;-78
2023/05/13 08:23:05;;;;;;;2.15;1.40;;;;;;;;;;4970095;28;21483;-78
2023/05/13 08:25:30;;;;;;;2.00;1.40;;;;;;;;;;4972508;28;20030;-78
2023/05/13 08:27:56;;;;;;;2.60;1.40;;;;;;;;;;4989675;28;20376;-76
2023/05/13 08:30:21;;;;;;;4.53;1.65;;;;;;;;;;4971660;28;20179;-78
2023/05/13 08:32:46;;;;;;;3.42;1.60;;;;;;;;;;5003005;28;20018;-77
2023/05/13 08:35:12;;;;;;;2.25;1.52;;;;;;;;;;4984087;28;20049;-78
2023/05/13 08:37:37;;;;;;;2.27;1.50;;;;;;;;;;4987536;28;21277;-77
2023/05/13 08:40:03;;;;;;;2.70;1.53;;;;;;;;;;4973787;28;20439;-76
2023/05/13 08:42:28;;;;;;;2.30;1.50;;;;;;;;;;4959681;28;20305;-77
2023/05/13 08:44:54;;;;;;;2.77;1.50;;;;;;;;;;4973058;28;20038;-77
2023/05/13 08:47:19;;;;;;;2.30;1.30;;;;;;;;;;4988534;28;20301;-78
2023/05/13 08:49:44;;;;;;;2.77;1.60;;;;;;;;;;4986945;28;20927;-76
2023/05/13 08:52:09;;;;;;;2.38;1.60;;;;;;;;;;4975381;28;20421;-76
2023/05/13 08:54:35;;;;;;;2.50;1.60;;;;;;;;;;4993400;28;20149;-75
2023/05/13 08:57:00;;;;;;;3.00;1.83;;;;;;;;;;4974999;28;20610;-77
2023/05/13 08:59:25;;;;;;;3.20;2.05;;;;;;;;;;4976118;28;20121;-76
2023/05/13 09:01:50;;;;;;;2.97;1.90;;;;;;;;;;4991780;28;20049;-76
2023/05/13 09:04:16;;;;;;;3.97;2.40;;;;;;;;;;4976390;28;20687;-76
2023/05/13 09:06:41;;;;;;;3.93;2.40;;;;;;;;;;4973158;28;20030;-77
2023/05/13 09:09:06;;;;;;;4.13;2.20;;;;;;;;;;4988812;28;20035;-76
2023/05/13 09:11:32;;;;;;;3.30;2.30;;;;;;;;;;4964994;28;20086;-77
2023/05/13 09:14:02;;;;;;;4.88;2.47;;;;;;;;;;4952930;28;20383;-76
2023/05/13 09:16:27;;;;;;;3.63;2.42;;;;;;;;;;4936968;28;20049;-78
2023/05/13 09:18:59;;;;;;;3.17;2.40;;;;;;;;;;4957260;28;20034;-78
2023/05/13 09:21:31;;;;;;;2.83;2.08;;;;;;;;;;4972194;28;20492;-77
2023/05/13 09:24:09;;;;;;;4.47;2.38;;;;;;;;;;4987199;28;20364;-77
2023/05/13 09:26:34;;;;;;;3.60;2.60;;;;;;;;;;4987878;28;20038;-77
2023/05/13 09:29:16;;;;;;;4.35;2.10;;;;;;;;;;4988978;28;20520;-77
2023/05/13 09:31:42;;;;;;;4.50;2.47;;;;;;;;;;4987554;28;20029;-76
2023/05/13 09:34:07;;;;;;;4.15;2.30;;;;;;;;;;4975537;28;20113;-79
2023/05/13 09:36:32;;;;;;;6.03;2.77;;;;;;;;;;4971384;28;20428;-79
2023/05/13 09:38:58;;;;;;;3.23;2.37;;;;;;;;;;4970711;28;20738;-76
2023/05/13 09:41:25;;;;;;;4.03;2.67;;;;;;;;;;4971721;28;20296;-75
2023/05/13 09:43:50;;;;;;;3.75;2.45;;;;;;;;;;4954855;28;20091;-77
2023/05/13 09:46:16;;;;;;;3.70;2.20;;;;;;;;;;4974790;28;20525;-78
2023/05/13 09:48:41;;;;;;;4.07;2.50;;;;;;;;;;4987067;28;20572;-77
2023/05/13 09:51:07;;;;;;;3.40;2.67;;;;;;;;;;4958923;28;20120;-77
2023/05/13 09:53:32;;;;;;;4.45;2.97;;;;;;;;;;4971504;28;20129;-77
2023/05/13 09:55:59;;;;;;;4.20;2.50;;;;;;;;;;4987489;28;20143;-76
2023/05/13 09:58:24;;;;;;;4.60;2.38;;;;;;;;;;4969366;28;20368;-76
2023/05/13 10:00:50;;;;;;;4.70;2.53;;;;;;;;;;4970481;28;20130;-76
2023/05/13 10:03:15;;;;;;;4.65;2.67;;;;;;;;;;4974830;28;20120;-75
2023/05/13 10:05:40;;;;;;;3.33;2.40;;;;;;;;;;4987677;28;20039;-77
2023/05/13 10:08:10;;;;;;;5.03;2.58;;;;;;;;;;4958229;28;20074;-77
2023/05/13 10:10:35;;;;;;;;;;;;;;;;;;4973032;28;20180;-77
2023/05/13 10:13:05;;;;;;;3.85;2.53;;;;;;;;;;4971798;28;19914;-77
2023/05/13 10:15:30;;;;;;;4.13;2.50;;;;;;;;;;4973147;28;20030;-78
2023/05/13 10:17:56;;;;;;;3.53;2.23;;;;;;;;;;4972341;28;20048;-76
2023/05/13 10:20:21;;;;;;;4.78;2.60;;;;;;;;;;4987842;28;20308;-77
2023/05/13 10:22:46;;;;;;;5.22;2.92;;;;;;;;;;4959532;28;20592;-75
2023/05/13 10:25:12;;;;;;;6.90;3.80;;;;;;;;;;4968995;28;20775;-75
2023/05/13 10:27:37;;;;;;;5.67;3.57;;;;;;;;;;4986605;28;22461;-76
2023/05/13 10:30:08;;;;;;;6.70;3.90;;;;;;;;;;4986259;28;20580;-76
2023/05/13 10:32:33;;;;;;;5.25;3.65;;;;;;;;;;4970571;28;20301;-77
2023/05/13 10:35:05;;;;;;;4.50;3.30;;;;;;;;;;4986376;28;20533;-76
2023/05/13 10:37:33;;;;;;;6.38;3.42;;;;;;;;;;4986433;28;20069;-75
2023/05/13 10:40:04;;;;;;;6.70;3.65;;;;;;;;;;4971245;28;20034;-75
2023/05/13 10:42:38;;;;;;;4.97;3.50;;;;;;;;;;4986963;28;20052;-75
2023/05/13 10:45:03;;;;;;;7.60;4.13;;;;;;;;;;4968680;28;20200;-75
2023/05/13 10:47:32;;;;;;;5.90;4.07;;;;;;;;;;4973810;28;20129;-75
2023/05/13 10:49:57;;;;;;;5.55;3.83;;;;;;;;;;4968453;28;20038;-74
2023/05/13 10:52:22;;;;;;;6.82;4.20;;;;;;;;;;4987040;28;20046;-76
2023/05/13 10:55:01;;;;;;;6.00;4.40;;;;;;;;;;4985976;28;20046;-75
2023/05/13 10:57:29;;;;;;;5.13;3.80;;;;;;;;;;4968606;28;20458;-75
2023/05/13 11:00:17;;;;;;;4.63;3.50;;;;;;;;;;4969272;28;20097;-75
2023/05/13 11:02:42;;;;;;;6.60;3.60;;;;;;;;;;4985409;28;20062;-75
2023/05/13 11:05:08;;;;;;;5.83;4.33;;;;;;;;;;4988442;28;20184;-74
2023/05/13 11:07:36;;;;;;;7.93;4.18;;;;;;;;;;4990319;28;20035;-74
2023/05/13 11:10:02;;;;;;;6.13;3.78;;;;;;;;;;4989338;28;20052;-74
2023/05/13 11:12:27;;;;;;;5.57;3.80;;;;;;;;;;4990460;28;20038;-75
2023/05/13 11:14:55;;;;;;;5.67;3.97;;;;;;;;;;4971587;28;20570;-75
2023/05/13 11:17:21;;;;;;;6.75;4.13;;;;;;;;;;4990131;28;20038;-74
2023/05/13 11:19:47;;;;;;;7.30;4.40;;;;;;;;;;4955975;28;20048;-75
2023/05/13 11:22:22;;;;;;;6.35;4.43;;;;;;;;;;4973467;28;20038;-76
2023/05/13 11:25:09;;;;;;;6.68;4.55;;;;;;;;;;4964074;28;20083;-76
2023/05/13 11:27:38;;;;;;;10.98;4.45;;;;;;;;;;4988144;28;20053;-75
2023/05/13 11:30:07;;;;;;;7.50;4.45;;;;;;;;;;4988064;28;20100;-76
2023/05/13 11:32:52;;;;;;;7.40;4.95;;;;;;;;;;4985778;28;20038;-77
2023/05/13 11:35:20;;;;;;;6.50;3.95;;;;;;;;;;4969186;28;20038;-77
2023/05/13 11:37:45;;;;;;;10.50;4.85;;;;;;;;;;4991350;28;20563;-79
2023/05/13 11:40:11;;;;;;;7.47;5.10;;;;;;;;;;5003179;28;20034;-77
2023/05/13 11:42:37;;;;;;;8.90;4.85;;;;;;;;;;4999681;28;20117;-76
2023/05/13 11:45:04;;;;;;;6.95;4.82;;;;;;;;;;4990160;28;20127;-77
2023/05/13 11:47:29;;;;;;;9.93;4.97;;;;;;;;;;4971792;28;20069;-77
2023/05/13 11:49:56;;;;;;;8.32;4.20;;;;;;;;;;5008998;28;20026;-76
2023/05/13 11:52:21;;;;;;;4.90;3.72;;;;;;;;;;4981855;28;20564;-75
2023/05/13 11:54:53;;;;;;;6.00;3.93;;;;;;;;;;4971462;28;20162;-75
2023/05/13 11:57:25;;;;;;;7.40;4.00;;;;;;;;;;4970567;28;20736;-74
2023/05/13 11:59:51;;;;;;;7.43;4.30;;;;;;;;;;4969278;28;20038;-77
2023/05/13 12:02:18;;;;;;;6.03;4.18;;;;;;;;;;4976344;28;20053;-75
2023/05/13 12:04:44;;;;;;;5.70;3.88;;;;;;;;;;5000661;28;20527;-76
2023/05/13 12:07:12;;;;;;;5.97;4.28;;;;;;;;;;4971442;28;20058;-74
2023/05/13 12:09:37;;;;;;;6.13;3.92;;;;;;;;;;5005892;28;20548;-74
2023/05/13 12:12:03;;;;;;;6.38;3.75;;;;;;;;;;4983054;28;20145;-75
2023/05/13 12:14:28;;;;;;;5.45;3.35;;;;;;;;;;4985439;28;20034;-76
2023/05/13 12:16:53;;;;;;;5.10;3.95;;;;;;;;;;4989013;28;20046;-75
2023/05/13 12:19:19;;;;;;;6.47;4.10;;;;;;;;;;4986928;28;20030;-75
2023/05/13 12:21:44;;;;;;;5.93;3.90;;;;;;;;;;5002616;28;20046;-75
2023/05/13 12:24:16;;;;;;;4.77;3.73;;;;;;;;;;4969365;28;20987;-74
2023/05/13 12:26:42;;;;;;;5.93;3.65;;;;;;;;;;4987843;28;20309;-74
2023/05/13 12:29:07;;;;;;;5.80;3.80;;;;;;;;;;4985756;28;20091;-75
2023/05/13 12:31:32;;;;;;;5.07;3.73;;;;;;;;;;4984001;28;20120;-74
2023/05/13 12:33:58;;;;;;;6.40;3.30;;;;;;;;;;4984603;28;20281;-75
2023/05/13 12:36:24;;;;;;;6.85;3.75;;;;;;;;;;4984763;28;20042;-75
2023/05/13 12:38:53;;;;;;;6.28;3.80;;;;;;;;;;4971873;28;20030;-74
2023/05/13 12:41:19;;;;;;;6.50;3.90;;;;;;;;;;4985843;28;20052;-74
2023/05/13 12:43:45;;;;;;;5.30;3.50;;;;;;;;;;4969479;28;20296;-75
2023/05/13 12:46:10;;;;;;;6.15;3.72;;;;;;;;;;5003444;28;20042;-73
2023/05/13 12:48:36;;;;;;;4.50;3.50;;;;;;;;;;4985616;28;20111;-76
2023/05/13 12:51:01;;;;;;;5.72;3.67;;;;;;;;;;4997283;28;20889;-75
2023/05/13 12:53:26;;;;;;;6.22;4.18;;;;;;;;;;4965754;28;20177;-76
2023/05/13 12:55:51;;;;;;;4.93;3.60;;;;;;;;;;4965740;28;20069;-76
2023/05/13 12:58:17;;;;;;;7.03;4.00;;;;;;;;;;4983514;28;20465;-74
2023/05/13 13:00:42;;;;;;;5.25;3.70;;;;;;;;;;4983313;28;20479;-76
2023/05/13 13:03:07;;;;;;;5.07;4.00;;;;;;;;;;4984526;28;20038;-76
2023/05/13 13:05:32;;;;;;;4.33;3.27;;;;;;;;;;4983605;28;20673;-76
2023/05/13 13:07:59;;;;;;;5.63;3.58;;;;;;;;;;4997845;28;20347;-73
2023/05/13 13:10:25;;;;;;;6.15;3.80;;;;;;;;;;5003155;28;20500;-74
2023/05/13 13:12:51;;;;;;;5.50;3.42;;;;;;;;;;5002426;28;20026;-73
2023/05/13 13:15:16;;;;;;;4.85;3.30;;;;;;;;;;5003423;28;20100;-74
2023/05/13 13:17:41;;;;;;;5.70;3.22;;;;;;;;;;4974054;28;20019;-73
2023/05/13 13:20:07;;;;;;;4.78;3.50;;;;;;;;;;4966327;28;20045;-74
2023/05/13 13:22:33;;;;;;;4.72;3.53;;;;;;;;;;4975462;28;20026;-74
2023/05/13 13:24:59;;;;;;;4.53;3.72;;;;;;;;;;4985616;28;20042;-74
2023/05/13 13:27:25;;;;;;;5.18;3.38;;;;;;;;;;5000945;28;20045;-76
2023/05/13 13:29:50;;;;;;;5.30;3.93;;;;;;;;;;4974529;28;20031;-74
2023/05/13 13:32:15;;;;;;;4.60;4.00;;;;;;;;;;4954147;28;20280;-75
2023/05/13 13:34:40;;;;;;;6.07;4.00;;;;;;;;;;4989273;28;20021;-76
2023/05/13 13:37:06;;;;;;;5.78;3.80;;;;;;;;;;4969837;28;20368;-73
2023/05/13 13:39:31;;;;;;;4.90;3.47;;;;;;;;;;4979832;28;20052;-75
2023/05/13 13:41:56;;;;;;;4.82;3.65;;;;;;;;;;5000120;28;20351;-76
2023/05/13 13:44:21;;;;;;;5.93;3.60;;;;;;;;;;5002460;28;20096;-76
2023/05/13 13:46:47;;;;;;;4.50;3.50;;;;;;;;;;5000904;28;20125;-76
2023/05/13 13:49:12;;;;;;;4.33;3.20;;;;;;;;;;5002253;28;20014;-75
2023/05/13 13:51:37;;;;;;;4.87;3.43;;;;;;;;;;4981565;28;20030;-77
2023/05/13 13:54:03;;;;;;;4.70;3.43;;;;;;;;;;4982293;28;20053;-76
2023/05/13 13:56:28;;;;;;;5.25;3.40;;;;;;;;;;4965148;28;20029;-74
2023/05/13 13:58:53;;;;;;;5.30;3.50;;;;;;;;;;4982860;28;20019;-75
2023/05/13 14:01:19;;;;;;;6.00;3.67;;;;;;;;;;4982592;28;20298;-75
2023/05/13 14:03:44;;;;;;;5.70;3.20;;;;;;;;;;4999728;28;20021;-75
2023/05/13 14:06:09;;;;;;;4.85;3.17;;;;;;;;;;5002028;28;20025;-74
2023/05/13 14:11:37;;;;;;;4.72;3.30;;;;;;;;;;4899881;28;20618;-76
2023/05/13 14:14:03;;;;;;;5.47;3.40;;;;;;;;;;4958529;28;20588;-77
2023/05/13 14:16:29;;;;;;;4.10;3.17;;;;;;;;;;4958859;28;20056;-75
2023/05/13 14:18:54;;;;;;;7.30;3.25;;;;;;;;;;4976072;28;20492;-75
2023/05/13 14:21:19;;;;;;;5.88;3.30;;;;;;;;;;4972536;28;20141;-75
2023/05/13 14:23:44;;;;;;;5.55;3.42;;;;;;;;;;4992224;28;20038;-75
2023/05/13 14:26:12;;;;;;;4.60;3.05;;;;;;;;;;4953866;28;20113;-74
2023/05/13 14:28:37;;;;;;;4.97;2.95;;;;;;;;;;4956859;28;20042;-75
2023/05/13 14:31:02;;;;;;;5.90;3.30;;;;;;;;;;4959397;28;20081;-75
2023/05/13 14:33:29;;;;;;;6.55;3.13;;;;;;;;;;4969893;28;20133;-75
2023/05/13 14:35:55;;;;;;;4.80;3.17;;;;;;;;;;4959169;28;20109;-78
2023/05/13 14:38:20;;;;;;;5.18;3.30;;;;;;;;;;4937402;28;20034;-75
2023/05/13 14:40:45;;;;;;;4.93;3.38;;;;;;;;;;4972877;28;20047;-75
2023/05/13 14:43:11;;;;;;;4.18;3.13;;;;;;;;;;4954693;28;20457;-75
2023/05/13 14:45:36;;;;;;;4.72;3.08;;;;;;;;;;4954196;28;20116;-77
2023/05/13 14:48:02;;;;;;;5.47;2.90;;;;;;;;;;4961316;28;20084;-77
2023/05/13 14:50:27;;;;;;;5.40;3.20;;;;;;;;;;4957704;28;20599;-76
2023/05/13 14:52:53;;;;;;;5.07;3.00;;;;;;;;;;4951531;28;20362;-77
2023/05/13 14:55:18;;;;;;;3.83;3.03;;;;;;;;;;4953406;28;20113;-76
2023/05/13 14:57:44;;;;;;;4.50;2.90;;;;;;;;;;4960517;28;20126;-76
2023/05/13 15:00:09;;;;;;;5.25;2.90;;;;;;;;;;4929128;28;20034;-76
2023/05/13 15:02:35;;;;;;;3.90;2.80;;;;;;;;;;4974588;28;20570;-76
2023/05/13 15:05:00;;;;;;;3.95;3.00;;;;;;;;;;4948203;28;20031;-73
2023/05/13 15:07:26;;;;;;;3.75;2.28;;;;;;;;;;4955887;28;20049;-73
2023/05/13 15:09:51;;;;;;;3.45;2.65;;;;;;;;;;4976298;28;20035;-77
2023/05/13 15:12:17;;;;;;;3.88;2.88;;;;;;;;;;4957417;28;20035;-75
2023/05/13 15:14:49;;;;;;;4.53;3.00;;;;;;;;;;4965993;28;20092;-75
2023/05/13 15:17:15;;;;;;;3.58;2.75;;;;;;;;;;4962416;28;20123;-75
2023/05/13 15:19:40;;;;;;;4.63;2.75;;;;;;;;;;4981292;28;20561;-75
2023/05/13 15:22:05;;;;;;;4.18;2.70;;;;;;;;;;4981065;28;20246;-75
2023/05/13 15:24:31;;;;;;;4.53;3.10;;;;;;;;;;4980701;28;20042;-75
2023/05/13 15:26:57;;;;;;;4.95;3.10;;;;;;;;;;4965909;28;20338;-75
2023/05/13 15:29:22;;;;;;;6.32;2.85;;;;;;;;;;4980132;28;20049;-75
2023/05/13 15:31:48;;;;;;;4.07;2.92;;;;;;;;;;4961418;28;20042;-76
2023/05/13 15:34:13;;;;;;;6.93;3.05;;;;;;;;;;4965227;28;20764;-76
2023/05/13 15:36:39;;;;;;;5.45;2.97;;;;;;;;;;4955894;28;20280;-77
2023/05/13 15:39:05;;;;;;;6.00;3.13;;;;;;;;;;4960586;28;20133;-77
2023/05/13 15:41:30;;;;;;;4.38;2.67;;;;;;;;;;4981953;28;20117;-75
2023/05/13 15:43:56;;;;;;;4.22;2.80;;;;;;;;;;4981811;28;20117;-75
2023/05/13 15:46:22;;;;;;;3.72;2.70;;;;;;;;;;4982228;28;20061;-75
2023/05/13 15:48:48;;;;;;;4.93;2.60;;;;;;;;;;4984525;28;20049;-72
2023/05/13 15:51:13;;;;;;;4.53;2.40;;;;;;;;;;4977815;28;20729;-75
2023/05/13 15:53:39;;;;;;;4.60;2.38;;;;;;;;;;4979154;28;20575;-76
2023/05/13 15:56:05;;;;;;;4.13;2.30;;;;;;;;;;4981342;28;20071;-76
2023/05/13 15:58:30;;;;;;;3.42;2.38;;;;;;;;;;4976184;28;20041;-76
2023/05/13 16:00:57;;;;;;;5.03;2.45;;;;;;;;;;4960772;28;20046;-76
2023/05/13 16:03:22;;;;;;;4.22;2.75;;;;;;;;;;4960848;28;20038;-76
2023/05/13 16:05:48;;;;;;;4.47;2.33;;;;;;;;;;4974346;28;20038;-74
2023/05/13 16:08:13;;;;;;;3.58;2.35;;;;;;;;;;4962251;28;20030;-77
2023/05/13 16:10:39;;;;;;;4.05;2.20;;;;;;;;;;4961767;28;20534;-74
2023/05/13 16:13:04;;;;;;;4.32;2.80;;;;;;;;;;4955312;28;20038;-76
2023/05/13 16:15:30;;;;;;;6.97;3.30;;;;;;;;;;4941511;28;20080;-75
2023/05/13 16:17:56;;;;;;;7.68;3.65;;;;;;;;;;4974764;28;20128;-78
2023/05/13 16:20:21;;;;;;;5.50;3.20;;;;;;;;;;4975756;28;20041;-77
2023/05/13 16:22:47;;;;;;;6.38;3.38;;;;;;;;;;4973444;28;20057;-76
2023/05/13 16:25:12;;;;;;;6.88;3.45;;;;;;;;;;4972262;28;20777;-78
2023/05/13 16:27:38;;;;;;;9.18;3.53;;;;;;;;;;4955603;28;20041;-78
2023/05/13 16:30:04;;;;;;;6.10;3.03;;;;;;;;;;4972626;28;20325;-75
2023/05/13 16:32:29;;;;;;;7.40;3.50;;;;;;;;;;4959460;28;20144;-75
2023/05/13 16:34:55;;;;;;;6.47;3.55;;;;;;;;;;4942894;28;20055;-76
2023/05/13 16:37:20;;;;;;;6.43;3.03;;;;;;;;;;4936554;28;20111;-76
2023/05/13 16:39:45;;;;;;;5.40;2.88;;;;;;;;;;4972345;28;20041;-77
2023/05/13 16:42:11;;;;;;;6.50;3.30;;;;;;;;;;4973560;28;20639;-76
2023/05/13 16:44:36;;;;;;;7.20;2.80;;;;;;;;;;4973899;28;20388;-76
2023/05/13 16:47:02;;;;;;;5.03;2.70;;;;;;;;;;4952604;28;20046;-74
2023/05/13 16:49:27;;;;;;;5.30;2.67;;;;;;;;;;4939734;28;20889;-74
2023/05/13 16:51:53;;;;;;;5.18;2.70;;;;;;;;;;4969257;28;20053;-74
2023/05/13 16:54:18;;;;;;;6.45;2.80;;;;;;;;;;4956330;28;20053;-75
2023/05/13 16:56:45;;;;;;;6.50;2.70;;;;;;;;;;4945024;28;20053;-75
2023/05/13 16:59:21;;;;;;;5.00;2.72;;;;;;;;;;4971375;28;20613;-75
2023/05/13 17:01:46;;;;;;;5.72;3.00;;;;;;;;;;4941284;28;20038;-74
2023/05/13 17:04:11;;;;;;;6.70;3.08;;;;;;;;;;4967798;28;20508;-75
2023/05/13 17:06:37;;;;;;;6.25;3.40;;;;;;;;;;4951609;28;20053;-74
2023/05/13 17:09:02;;;;;;;6.53;3.47;;;;;;;;;;4970621;28;20534;-75
2023/05/13 17:11:28;;;;;;;4.47;2.97;;;;;;;;;;4970418;28;20037;-74
2023/05/13 17:13:53;;;;;;;8.25;2.80;;;;;;;;;;4969183;28;21081;-76
2023/05/13 17:16:18;;;;;;;5.28;2.42;;;;;;;;;;4951151;28;20077;-77